createdAt,value
2023-04-22T00:02:52.722Z,99936.91
2023-04-22T00:07:55.519Z,99982.22
2023-04-22T00:12:59.632Z,99967.69
2023-04-22T00:18:02.333Z,99967.72
2023-04-22T00:23:05.085Z,99933.78
2023-04-22T00:28:09.366Z,99903.56
2023-04-22T00:33:12.297Z,99897.59
2023-04-22T00:38:15.161Z,99885.41
2023-04-22T00:43:19.286Z,99869.09
2023-04-22T00:48:22.521Z,99874.44
2023-04-22T00:53:25.256Z,99871.00
2023-04-22T00:58:30.873Z,99860.22
2023-04-22T01:03:33.951Z,99869.31
2023-04-22T01:08:36.830Z,99883.97
2023-04-22T01:13:41.157Z,99878.09
2023-04-22T01:18:43.953Z,99876.50
2023-04-22T01:23:48.467Z,99887.78
2023-04-22T01:28:51.666Z,99897.31
2023-04-22T01:33:54.473Z,99904.16
2023-04-22T01:38:58.596Z,99908.41
2023-04-22T01:44:04.495Z,99915.09
2023-04-22T01:49:07.650Z,99928.06
2023-04-22T01:54:11.941Z,99932.97
2023-04-22T01:59:14.689Z,99945.75
2023-04-22T02:04:17.670Z,99953.16
2023-04-22T02:09:22.024Z,99957.50
2023-04-22T02:14:26.679Z,99964.19
2023-04-22T02:19:29.522Z,99968.44
2023-04-22T02:24:33.702Z,99974.03
2023-04-22T02:29:36.535Z,99981.81
2023-04-22T02:34:39.394Z,99982.53
2023-04-22T02:39:43.529Z,100000.81
2023-04-22T02:44:46.392Z,100007.00
2023-04-22T02:49:49.185Z,100016.38
2023-04-22T02:54:53.579Z,100018.25
2023-04-22T02:59:57.049Z,100015.44
2023-04-22T03:05:00.860Z,100026.47
2023-04-22T03:10:07.787Z,100030.72
2023-04-22T03:15:11.357Z,100036.84
2023-04-22T03:20:15.017Z,100041.41
2023-04-22T03:25:19.846Z,100045.44
2023-04-22T03:30:29.072Z,100057.75
2023-04-22T03:35:32.262Z,100055.06
2023-04-22T03:40:38.816Z,100072.84
2023-04-22T03:45:52.861Z,100090.03
2023-04-22T03:51:00.252Z,100104.91
2023-04-22T03:56:07.618Z,100105.59
2023-04-22T04:01:14.486Z,100114.41
2023-04-22T04:06:20.503Z,100122.31
2023-04-22T04:11:24.728Z,100137.22
2023-04-22T04:16:29.336Z,100137.47
2023-04-22T04:21:39.692Z,100156.63
2023-04-22T04:26:44.764Z,100159.38
2023-04-22T04:31:53.234Z,100167.13
2023-04-22T04:36:57.042Z,100195.22
2023-04-22T04:42:09.631Z,100206.09
2023-04-22T04:47:22.659Z,100220.38
2023-04-22T04:52:28.065Z,100235.16
2023-04-22T04:57:32.365Z,100245.84
2023-04-22T05:02:36.299Z,100247.78
2023-04-22T05:07:39.690Z,100262.50
2023-04-22T05:12:46.226Z,100268.84
2023-04-22T05:17:53.360Z,100280.56
2023-04-22T05:22:56.269Z,100283.97
2023-04-22T05:28:00.616Z,100298.00
2023-04-22T05:33:09.518Z,100310.59
2023-04-22T05:38:12.979Z,100316.88
2023-04-22T05:43:18.997Z,100328.56
2023-04-22T05:48:28.290Z,100321.56
2023-04-22T05:53:35.308Z,100327.44
2023-04-22T05:58:40.266Z,100329.59
2023-04-22T06:03:49.810Z,100330.28
2023-04-22T06:08:53.407Z,100323.81
2023-04-22T06:13:57.653Z,100313.09
2023-04-22T06:19:00.572Z,100305.00
2023-04-22T06:24:04.370Z,100298.56
2023-04-22T06:29:08.661Z,100281.84
2023-04-22T06:34:13.962Z,100280.06
2023-04-22T06:39:16.990Z,100279.81
2023-04-22T06:44:32.154Z,100278.25
2023-04-22T06:49:53.731Z,100282.09
2023-04-22T06:55:00.387Z,100272.75
2023-04-22T07:00:05.252Z,100271.25
2023-04-22T07:05:10.815Z,100267.34
2023-04-22T07:10:14.643Z,100258.88
2023-04-22T07:15:26.825Z,100261.19
2023-04-22T07:20:29.720Z,100258.22
2023-04-22T07:25:32.520Z,100258.06
2023-04-22T07:30:36.739Z,100235.78
2023-04-22T07:35:39.609Z,100225.72
2023-04-22T07:40:42.425Z,100211.47
2023-04-22T07:45:46.760Z,100191.25
2023-04-22T07:50:49.566Z,100180.84
2023-04-22T07:55:52.359Z,100169.75
2023-04-22T08:00:56.618Z,100147.97
2023-04-22T08:05:59.605Z,100127.91
2023-04-22T08:11:02.486Z,100108.66
2023-04-22T08:16:07.880Z,100107.09
2023-04-22T08:21:10.853Z,100096.75
2023-04-22T08:26:15.160Z,100086.94
2023-04-22T08:31:19.400Z,100057.19
2023-04-22T08:36:28.355Z,100036.97
2023-04-22T08:41:31.873Z,100025.59
2023-04-22T08:46:36.150Z,100007.25
2023-04-22T08:51:39.291Z,99988.66
2023-04-22T08:56:43.246Z,99969.31
2023-04-22T09:01:51.480Z,99966.84
2023-04-22T09:06:54.278Z,99950.06
2023-04-22T09:11:57.913Z,99943.09
2023-04-22T09:17:04.283Z,99922.75
2023-04-22T09:22:07.150Z,99919.25
2023-04-22T09:27:11.177Z,99903.25
2023-04-22T09:32:15.429Z,99887.31
2023-04-22T09:37:21.081Z,99875.81
2023-04-22T09:42:23.913Z,99849.09
2023-04-22T09:47:36.535Z,99824.97
2023-04-22T09:52:39.290Z,99787.56
2023-04-22T09:57:42.013Z,99738.47
2023-04-22T10:02:46.278Z,99667.25
2023-04-22T10:07:49.181Z,99658.28
2023-04-22T10:12:52.915Z,99697.41
2023-04-22T10:17:57.235Z,99725.84
2023-04-22T10:23:00.000Z,99735.50
2023-04-22T10:28:04.019Z,99728.50
2023-04-22T10:33:39.472Z,99734.44
2023-04-22T10:38:46.260Z,99698.75
2023-04-22T10:43:51.084Z,99694.69
2023-04-22T10:48:57.654Z,99672.59
2023-04-22T10:54:02.551Z,99662.50
2023-04-22T10:59:16.754Z,99643.84
2023-04-22T11:04:24.529Z,99624.75
2023-04-22T11:09:27.722Z,99625.50
2023-04-22T11:14:30.510Z,99623.88
2023-04-22T11:19:34.698Z,99616.91
2023-04-22T11:24:37.436Z,99591.72
2023-04-22T11:29:40.403Z,99585.59
2023-04-22T11:34:44.808Z,99586.34
2023-04-22T11:40:05.273Z,99572.50
2023-04-22T11:45:11.868Z,99570.41
2023-04-22T11:50:15.990Z,99564.56
2023-04-22T11:55:21.832Z,99570.13
2023-04-22T12:00:25.621Z,99549.34
2023-04-22T12:05:40.473Z,99537.28
2023-04-22T12:10:45.106Z,99537.47
2023-04-22T12:15:48.192Z,99534.41
2023-04-22T12:20:52.952Z,99529.47
2023-04-22T12:25:55.755Z,99536.00
2023-04-22T12:30:58.558Z,99532.91
2023-04-22T12:36:02.802Z,99530.28
2023-04-22T12:41:06.397Z,99528.19
2023-04-22T12:46:10.414Z,99522.56
2023-04-22T12:51:14.587Z,99517.03
2023-04-22T12:56:17.398Z,99512.97
2023-04-22T13:01:20.151Z,99528.22
2023-04-22T13:06:24.375Z,99517.09
2023-04-22T13:11:27.367Z,99532.13
2023-04-22T13:16:30.177Z,99532.03
2023-04-22T13:21:34.328Z,99510.00
2023-04-22T13:26:38.036Z,99505.16
2023-04-22T13:31:40.946Z,99506.63
2023-04-22T13:36:45.061Z,99507.84
2023-04-22T13:41:47.903Z,99495.38
2023-04-22T13:46:50.662Z,99510.09
2023-04-22T13:51:54.830Z,99483.91
2023-04-22T13:56:57.574Z,99489.94
2023-04-22T14:02:00.335Z,99481.50
2023-04-22T14:07:05.020Z,99493.03
2023-04-22T14:12:08.601Z,99489.84
2023-04-22T14:17:11.482Z,99485.97
2023-04-22T14:22:15.674Z,99478.59
2023-04-22T14:27:18.414Z,99480.38
2023-04-22T14:32:21.738Z,99477.09
2023-04-22T14:37:26.073Z,99474.63
2023-04-22T14:42:29.627Z,99479.34
2023-04-22T14:47:32.450Z,99475.31
2023-04-22T14:52:36.586Z,99482.13
2023-04-22T14:57:39.941Z,99472.31
2023-04-22T15:02:42.875Z,99477.50
2023-04-22T15:07:47.086Z,99476.66
2023-04-22T15:12:50.078Z,99470.34
2023-04-22T15:17:52.889Z,99478.72
2023-04-22T15:22:57.200Z,99487.69
2023-04-22T15:27:59.981Z,99485.41
2023-04-22T15:33:04.848Z,99482.16
2023-04-22T15:38:09.055Z,99491.28
2023-04-22T15:43:11.932Z,99498.06
2023-04-22T15:48:14.705Z,99505.50
2023-04-22T15:53:19.161Z,99514.97
2023-04-22T15:58:21.894Z,99528.81
2023-04-22T16:03:24.902Z,99532.91
2023-04-22T16:08:29.248Z,99541.00
2023-04-22T16:13:32.056Z,99542.00
2023-04-22T16:18:34.889Z,99556.25
2023-04-22T16:23:39.108Z,99542.88
2023-04-22T16:28:41.882Z,99556.31
2023-04-22T16:33:44.681Z,99568.03
2023-04-22T16:38:48.825Z,99571.69
2023-04-22T16:43:51.575Z,99559.28
2023-04-22T16:48:54.438Z,99559.28
2023-04-22T16:53:58.570Z,99553.97
2023-04-22T16:59:01.464Z,99558.38
2023-04-22T17:04:04.449Z,99542.41
2023-04-22T17:09:10.003Z,99544.19
2023-04-22T17:14:12.783Z,99544.19
2023-04-22T17:19:15.654Z,99535.31
2023-04-22T17:24:22.192Z,99535.28
2023-04-22T17:29:26.023Z,99537.94
2023-04-22T17:34:28.781Z,99544.19
2023-04-22T17:39:32.941Z,99539.75
2023-04-22T17:44:35.707Z,99553.88
2023-04-22T17:49:38.784Z,99549.44
2023-04-22T17:54:43.557Z,99553.00
2023-04-22T17:59:46.330Z,99556.50
2023-04-22T18:04:49.053Z,99568.03
2023-04-22T18:09:53.129Z,99587.59
2023-04-22T18:14:55.841Z,99601.78
2023-04-22T18:20:09.795Z,99622.16
2023-04-22T18:25:18.513Z,99622.16
2023-04-22T18:30:21.609Z,99633.69
2023-04-22T18:35:24.419Z,99637.16
2023-04-22T18:40:28.490Z,99637.13
2023-04-22T18:45:31.206Z,99648.59
2023-04-22T18:50:33.976Z,99660.94
2023-04-22T18:55:38.125Z,99661.50
2023-04-22T19:00:40.952Z,99670.28
2023-04-22T19:05:43.740Z,99680.84
2023-04-22T19:10:47.854Z,99683.22
2023-04-22T19:15:50.578Z,99679.72
2023-04-22T19:20:53.307Z,99678.75
2023-04-22T19:25:57.466Z,99682.94
2023-04-22T19:31:00.956Z,99690.78
2023-04-22T19:36:03.743Z,99694.03
2023-04-22T19:41:09.069Z,99698.69
2023-04-22T19:46:11.882Z,99702.91
2023-04-22T19:51:14.932Z,99705.44
2023-04-22T19:56:19.308Z,99701.72
2023-04-22T20:01:22.483Z,99691.19
2023-04-22T20:06:25.353Z,99706.47
2023-04-22T20:11:30.192Z,99725.75
2023-04-22T20:16:34.455Z,99735.53
2023-04-22T20:21:39.750Z,99654.06
2023-04-22T20:26:44.001Z,99581.50
2023-04-22T20:31:47.147Z,99550.78
2023-04-22T20:36:53.641Z,99553.22
2023-04-22T20:41:58.378Z,99550.56
2023-04-22T20:47:01.134Z,99575.22
2023-04-22T20:52:03.825Z,99618.75
2023-04-22T20:57:08.166Z,99709.03
2023-04-22T21:02:11.416Z,99798.34
2023-04-22T21:07:17.598Z,99868.16
2023-04-22T21:12:22.357Z,99916.69
2023-04-22T21:17:26.151Z,99967.97
2023-04-22T21:22:30.839Z,99946.59
2023-04-22T21:27:35.510Z,99992.59
2023-04-22T21:32:40.531Z,100022.56
2023-04-22T21:37:43.321Z,100057.88
2023-04-22T21:42:49.273Z,100076.13
2023-04-22T21:47:52.135Z,100101.00
2023-04-22T21:52:54.886Z,100129.22
2023-04-22T21:57:58.995Z,100143.44
2023-04-22T22:03:01.951Z,100163.00
2023-04-22T22:08:05.010Z,100180.25
2023-04-22T22:13:09.162Z,100189.13
2023-04-22T22:18:11.902Z,100191.84
2023-04-22T22:23:14.647Z,100216.03
2023-04-22T22:28:18.734Z,100228.53
2023-04-22T22:33:21.464Z,100276.34
2023-04-22T22:38:24.225Z,100286.81
2023-04-22T22:43:28.347Z,100325.84
2023-04-22T22:48:31.185Z,100371.56
2023-04-22T22:53:36.231Z,100392.06
2023-04-22T22:58:40.745Z,100441.03
2023-04-22T23:03:43.897Z,100471.81
2023-04-22T23:08:46.802Z,100479.28
2023-04-22T23:13:50.861Z,100522.69
2023-04-22T23:18:53.865Z,100560.56
2023-04-22T23:23:57.669Z,100418.78
2023-04-22T23:29:02.271Z,100429.25
2023-04-22T23:34:06.304Z,100456.91
2023-04-22T23:39:09.698Z,100464.00
2023-04-22T23:44:13.824Z,100498.34
2023-04-22T23:49:16.630Z,100529.75
2023-04-22T23:54:19.352Z,100553.97
2023-04-22T23:59:24.167Z,100595.47
